sensor_id;sensor_type;location;lat;lon;timestamp;pressure;altitude;pressure_sealevel;temperature;humidity
10832;BME280;5469;48.574;8.768;2022-12-20T00:01:10;95377.06;;;5.08;84.15
10832;BME280;5469;48.574;8.768;2022-12-20T00:03:47;95365.31;;;5.10;84.10
10832;BME280;5469;48.574;8.768;2022-12-20T00:06:24;95372.75;;;5.13;83.89
10832;BME280;5469;48.574;8.768;2022-12-20T00:09:02;95380.38;;;5.03;84.60
10832;BME280;5469;48.574;8.768;2022-12-20T00:11:39;95367.94;;;4.98;84.87
10832;BME280;5469;48.574;8.768;2022-12-20T00:14:16;95365.78;;;5.07;84.34
10832;BME280;5469;48.574;8.768;2022-12-20T00:16:51;95361.69;;;5.11;84.52
10832;BME280;5469;48.574;8.768;2022-12-20T00:19:24;95355.78;;;5.28;85.01
10832;BME280;5469;48.574;8.768;2022-12-20T00:21:58;95349.16;;;5.37;84.72
10832;BME280;5469;48.574;8.768;2022-12-20T00:24:31;95356.28;;;5.48;84.33
10832;BME280;5469;48.574;8.768;2022-12-20T00:27:05;95343.94;;;5.60;84.23
10832;BME280;5469;48.574;8.768;2022-12-20T00:29:39;95340.72;;;5.58;83.99
10832;BME280;5469;48.574;8.768;2022-12-20T00:32:13;95334.56;;;5.64;84.40
10832;BME280;5469;48.574;8.768;2022-12-20T00:34:46;95308.16;;;5.71;83.35
10832;BME280;5469;48.574;8.768;2022-12-20T00:37:19;95328.03;;;5.79;83.23
10832;BME280;5469;48.574;8.768;2022-12-20T00:39:53;95314.41;;;5.70;82.90
10832;BME280;5469;48.574;8.768;2022-12-20T00:42:26;95320.03;;;5.74;83.39
10832;BME280;5469;48.574;8.768;2022-12-20T00:45:01;95338.00;;;5.77;82.81
10832;BME280;5469;48.574;8.768;2022-12-20T00:47:35;95333.63;;;5.70;83.05
10832;BME280;5469;48.574;8.768;2022-12-20T00:50:09;95342.56;;;5.81;83.04
10832;BME280;5469;48.574;8.768;2022-12-20T00:52:42;95351.72;;;5.79;82.96
10832;BME280;5469;48.574;8.768;2022-12-20T00:55:16;95339.25;;;5.98;82.30
10832;BME280;5469;48.574;8.768;2022-12-20T00:57:49;95340.28;;;6.08;82.46
10832;BME280;5469;48.574;8.768;2022-12-20T01:00:24;95332.69;;;6.24;82.09
10832;BME280;5469;48.574;8.768;2022-12-20T01:02:58;95331.31;;;6.33;82.02
10832;BME280;5469;48.574;8.768;2022-12-20T01:05:32;95341.59;;;6.34;81.60
10832;BME280;5469;48.574;8.768;2022-12-20T01:08:05;95334.50;;;6.35;81.26
10832;BME280;5469;48.574;8.768;2022-12-20T01:10:39;95351.97;;;6.12;80.81
10832;BME280;5469;48.574;8.768;2022-12-20T01:13:13;95346.22;;;5.92;81.03
10832;BME280;5469;48.574;8.768;2022-12-20T01:15:48;95333.19;;;5.74;81.01
10832;BME280;5469;48.574;8.768;2022-12-20T01:18:21;95345.28;;;5.51;81.74
10832;BME280;5469;48.574;8.768;2022-12-20T01:21:00;95350.44;;;5.69;81.53
10832;BME280;5469;48.574;8.768;2022-12-20T01:23:34;95343.13;;;5.60;81.66
10832;BME280;5469;48.574;8.768;2022-12-20T01:26:10;95345.19;;;5.81;81.22
10832;BME280;5469;48.574;8.768;2022-12-20T01:28:46;95339.56;;;5.78;81.40
10832;BME280;5469;48.574;8.768;2022-12-20T01:31:21;95326.75;;;5.93;81.06
10832;BME280;5469;48.574;8.768;2022-12-20T01:33:55;95346.22;;;5.92;80.84
10832;BME280;5469;48.574;8.768;2022-12-20T01:36:30;95343.47;;;5.87;81.13
10832;BME280;5469;48.574;8.768;2022-12-20T01:39:05;95339.94;;;5.69;81.61
10832;BME280;5469;48.574;8.768;2022-12-20T01:41:40;95339.47;;;5.61;81.80
10832;BME280;5469;48.574;8.768;2022-12-20T01:47:37;95318.66;;;5.71;81.72
10832;BME280;5469;48.574;8.768;2022-12-20T01:50:11;95327.69;;;5.63;81.61
10832;BME280;5469;48.574;8.768;2022-12-20T01:52:46;95324.03;;;5.64;81.50
10832;BME280;5469;48.574;8.768;2022-12-20T01:55:22;95330.44;;;5.68;81.37
10832;BME280;5469;48.574;8.768;2022-12-20T01:58:01;95319.44;;;5.60;81.16
10832;BME280;5469;48.574;8.768;2022-12-20T02:00:35;95318.06;;;5.57;81.20
10832;BME280;5469;48.574;8.768;2022-12-20T02:03:12;95316.81;;;5.60;80.88
10832;BME280;5469;48.574;8.768;2022-12-20T02:05:46;95313.53;;;5.53;81.09
10832;BME280;5469;48.574;8.768;2022-12-20T02:08:20;95303.09;;;5.69;80.83
10832;BME280;5469;48.574;8.768;2022-12-20T02:11:04;95303.22;;;5.75;80.56
10832;BME280;5469;48.574;8.768;2022-12-20T02:13:46;95310.19;;;5.81;80.39
10832;BME280;5469;48.574;8.768;2022-12-20T02:16:27;95314.06;;;5.78;80.36
10832;BME280;5469;48.574;8.768;2022-12-20T02:19:14;95311.00;;;5.81;80.25
10832;BME280;5469;48.574;8.768;2022-12-20T02:22:05;95309.38;;;5.92;79.61
10832;BME280;5469;48.574;8.768;2022-12-20T02:24:57;95303.44;;;5.85;79.77
10832;BME280;5469;48.574;8.768;2022-12-20T02:27:44;95309.63;;;5.79;79.67
10832;BME280;5469;48.574;8.768;2022-12-20T02:30:25;95312.16;;;5.74;79.61
10832;BME280;5469;48.574;8.768;2022-12-20T02:33:02;95302.06;;;5.70;79.63
10832;BME280;5469;48.574;8.768;2022-12-20T02:35:37;95300.94;;;5.66;79.88
10832;BME280;5469;48.574;8.768;2022-12-20T02:38:26;95291.53;;;5.70;79.60
10832;BME280;5469;48.574;8.768;2022-12-20T02:41:04;95297.84;;;5.69;79.63
10832;BME280;5469;48.574;8.768;2022-12-20T02:43:41;95297.84;;;5.69;79.79
10832;BME280;5469;48.574;8.768;2022-12-20T02:46:35;95294.28;;;5.76;79.37
10832;BME280;5469;48.574;8.768;2022-12-20T02:49:14;95294.75;;;5.73;79.21
10832;BME280;5469;48.574;8.768;2022-12-20T02:51:50;95292.22;;;5.78;78.93
10832;BME280;5469;48.574;8.768;2022-12-20T02:54:24;95304.47;;;5.84;79.12
10832;BME280;5469;48.574;8.768;2022-12-20T02:57:01;95291.09;;;5.85;78.67
10832;BME280;5469;48.574;8.768;2022-12-20T02:59:42;95301.16;;;5.77;79.25
10832;BME280;5469;48.574;8.768;2022-12-20T03:02:18;95302.06;;;5.82;78.60
10832;BME280;5469;48.574;8.768;2022-12-20T03:04:53;95297.72;;;5.88;78.56
10832;BME280;5469;48.574;8.768;2022-12-20T03:07:28;95288.34;;;5.92;78.38
10832;BME280;5469;48.574;8.768;2022-12-20T03:10:02;95262.50;;;5.89;77.80
10832;BME280;5469;48.574;8.768;2022-12-20T03:12:35;95256.09;;;5.85;78.08
10832;BME280;5469;48.574;8.768;2022-12-20T03:15:09;95266.06;;;5.95;77.78
10832;BME280;5469;48.574;8.768;2022-12-20T03:17:44;95261.59;;;5.95;77.23
10832;BME280;5469;48.574;8.768;2022-12-20T03:20:18;95268.44;;;5.96;77.49
10832;BME280;5469;48.574;8.768;2022-12-20T03:22:51;95279.78;;;5.97;77.34
10832;BME280;5469;48.574;8.768;2022-12-20T03:25:24;95283.09;;;5.92;78.07
10832;BME280;5469;48.574;8.768;2022-12-20T03:27:58;95280.34;;;5.87;78.09
10832;BME280;5469;48.574;8.768;2022-12-20T03:30:31;95280.09;;;5.88;78.15
10832;BME280;5469;48.574;8.768;2022-12-20T03:33:06;95275.53;;;5.84;78.08
10832;BME280;5469;48.574;8.768;2022-12-20T03:35:39;95273.47;;;5.86;78.48
10832;BME280;5469;48.574;8.768;2022-12-20T03:38:13;95273.34;;;6.04;77.60
10832;BME280;5469;48.574;8.768;2022-12-20T03:40:46;95265.91;;;6.01;77.34
10832;BME280;5469;48.574;8.768;2022-12-20T03:43:20;95262.00;;;6.16;77.04
10832;BME280;5469;48.574;8.768;2022-12-20T03:45:53;95259.00;;;6.24;76.64
10832;BME280;5469;48.574;8.768;2022-12-20T03:48:28;95259.03;;;6.41;76.15
10832;BME280;5469;48.574;8.768;2022-12-20T03:51:01;95249.47;;;6.34;76.35
10832;BME280;5469;48.574;8.768;2022-12-20T03:53:35;95244.25;;;6.51;75.38
10832;BME280;5469;48.574;8.768;2022-12-20T03:56:08;95245.19;;;6.45;75.49
10832;BME280;5469;48.574;8.768;2022-12-20T03:58:42;95243.69;;;6.49;75.40
10832;BME280;5469;48.574;8.768;2022-12-20T04:01:17;95245.19;;;6.45;75.55
10832;BME280;5469;48.574;8.768;2022-12-20T04:03:52;95253.34;;;6.44;75.75
10832;BME280;5469;48.574;8.768;2022-12-20T04:06:26;95271.66;;;6.39;75.36
10832;BME280;5469;48.574;8.768;2022-12-20T04:08:59;95267.28;;;6.44;75.54
10832;BME280;5469;48.574;8.768;2022-12-20T04:11:33;95270.50;;;6.46;75.41
10832;BME280;5469;48.574;8.768;2022-12-20T04:14:06;95269.44;;;6.47;75.33
10832;BME280;5469;48.574;8.768;2022-12-20T04:16:40;95271.69;;;6.55;74.99
10832;BME280;5469;48.574;8.768;2022-12-20T04:19:15;95275.38;;;6.54;75.34
10832;BME280;5469;48.574;8.768;2022-12-20T04:21:48;95266.59;;;6.49;75.25
10832;BME280;5469;48.574;8.768;2022-12-20T04:24:21;95261.50;;;6.59;75.20
10832;BME280;5469;48.574;8.768;2022-12-20T04:26:55;95257.22;;;6.70;74.62
10832;BME280;5469;48.574;8.768;2022-12-20T04:29:28;95250.50;;;6.62;74.73
10832;BME280;5469;48.574;8.768;2022-12-20T04:32:02;95236.06;;;6.65;74.89
10832;BME280;5469;48.574;8.768;2022-12-20T04:34:37;95237.72;;;6.71;74.26
10832;BME280;5469;48.574;8.768;2022-12-20T04:37:10;95217.63;;;6.65;74.58
10832;BME280;5469;48.574;8.768;2022-12-20T04:39:44;95224.66;;;6.76;74.37
10832;BME280;5469;48.574;8.768;2022-12-20T04:42:17;95237.72;;;6.71;74.75
10832;BME280;5469;48.574;8.768;2022-12-20T04:44:52;95237.25;;;6.74;74.25
10832;BME280;5469;48.574;8.768;2022-12-20T04:47:25;95231.50;;;6.77;74.18
10832;BME280;5469;48.574;8.768;2022-12-20T04:50:00;95225.38;;;6.88;74.21
10832;BME280;5469;48.574;8.768;2022-12-20T04:52:33;95236.16;;;6.87;73.96
10832;BME280;5469;48.574;8.768;2022-12-20T04:55:24;95222.25;;;6.91;73.71
10832;BME280;5469;48.574;8.768;2022-12-20T04:57:57;95223.84;;;6.92;73.54
10832;BME280;5469;48.574;8.768;2022-12-20T05:00:31;95214.75;;;7.00;73.42
10832;BME280;5469;48.574;8.768;2022-12-20T05:03:04;95212.84;;;6.95;73.56
10832;BME280;5469;48.574;8.768;2022-12-20T05:05:39;95211.88;;;7.02;73.37
10832;BME280;5469;48.574;8.768;2022-12-20T05:08:12;95210.91;;;7.08;72.99
10832;BME280;5469;48.574;8.768;2022-12-20T05:10:46;95207.66;;;7.00;73.12
10832;BME280;5469;48.574;8.768;2022-12-20T05:13:20;95207.75;;;7.06;73.37
10832;BME280;5469;48.574;8.768;2022-12-20T05:15:54;95208.19;;;7.03;73.63
10832;BME280;5469;48.574;8.768;2022-12-20T05:18:28;95193.38;;;6.96;73.17
10832;BME280;5469;48.574;8.768;2022-12-20T05:21:03;95209.66;;;6.93;73.39
10832;BME280;5469;48.574;8.768;2022-12-20T05:23:54;95203.75;;;7.03;73.03
10832;BME280;5469;48.574;8.768;2022-12-20T05:26:44;95213.66;;;6.96;73.23
10832;BME280;5469;48.574;8.768;2022-12-20T05:29:18;95214.31;;;7.03;73.35
10832;BME280;5469;48.574;8.768;2022-12-20T05:31:51;95200.88;;;7.05;72.89
10832;BME280;5469;48.574;8.768;2022-12-20T05:34:25;95203.97;;;7.02;73.45
10832;BME280;5469;48.574;8.768;2022-12-20T05:37:00;95211.72;;;6.91;73.78
10832;BME280;5469;48.574;8.768;2022-12-20T05:39:33;95205.81;;;6.84;73.43
10832;BME280;5469;48.574;8.768;2022-12-20T05:42:07;95213.78;;;6.89;73.68
10832;BME280;5469;48.574;8.768;2022-12-20T05:44:40;95205.81;;;6.84;73.62
10832;BME280;5469;48.574;8.768;2022-12-20T05:47:13;95207.44;;;6.85;74.09
10832;BME280;5469;48.574;8.768;2022-12-20T05:49:47;95194.63;;;6.77;74.33
10832;BME280;5469;48.574;8.768;2022-12-20T05:52:22;95200.38;;;6.74;74.33
10832;BME280;5469;48.574;8.768;2022-12-20T05:54:56;95189.84;;;6.74;73.88
10832;BME280;5469;48.574;8.768;2022-12-20T05:57:29;95185.06;;;6.71;74.31
10832;BME280;5469;48.574;8.768;2022-12-20T06:00:03;95192.38;;;6.69;74.42
10832;BME280;5469;48.574;8.768;2022-12-20T06:02:37;95191.28;;;6.65;74.45
10832;BME280;5469;48.574;8.768;2022-12-20T06:05:11;95188.16;;;6.68;74.40
10832;BME280;5469;48.574;8.768;2022-12-20T06:07:45;95191.50;;;6.63;75.03
10832;BME280;5469;48.574;8.768;2022-12-20T06:10:19;95190.16;;;6.61;74.38
10832;BME280;5469;48.574;8.768;2022-12-20T06:12:53;95192.31;;;6.64;74.44
10832;BME280;5469;48.574;8.768;2022-12-20T06:15:26;95187.28;;;6.62;75.07
10832;BME280;5469;48.574;8.768;2022-12-20T06:18:00;95191.09;;;6.54;74.83
10832;BME280;5469;48.574;8.768;2022-12-20T06:20:34;95192.22;;;6.59;74.92
10832;BME280;5469;48.574;8.768;2022-12-20T06:23:09;95192.69;;;6.55;74.78
10832;BME280;5469;48.574;8.768;2022-12-20T06:25:42;95199.59;;;6.56;75.02
10832;BME280;5469;48.574;8.768;2022-12-20T06:28:16;95185.09;;;6.42;75.35
10832;BME280;5469;48.574;8.768;2022-12-20T06:30:53;95184.63;;;6.45;75.23
10832;BME280;5469;48.574;8.768;2022-12-20T06:33:26;95174.66;;;6.30;75.42
10832;BME280;5469;48.574;8.768;2022-12-20T06:36:00;95192.69;;;6.39;76.02
10832;BME280;5469;48.574;8.768;2022-12-20T06:38:35;95185.97;;;6.31;76.50
10832;BME280;5469;48.574;8.768;2022-12-20T06:41:08;95176.72;;;6.28;76.15
10832;BME280;5469;48.574;8.768;2022-12-20T06:43:41;95179.56;;;6.27;76.42
10832;BME280;5469;48.574;8.768;2022-12-20T06:46:15;95175.75;;;6.34;76.27
10832;BME280;5469;48.574;8.768;2022-12-20T06:48:48;95177.03;;;6.32;76.45
10832;BME280;5469;48.574;8.768;2022-12-20T06:51:22;95176.41;;;6.42;76.17
10832;BME280;5469;48.574;8.768;2022-12-20T06:53:56;95168.16;;;6.38;76.26
10832;BME280;5469;48.574;8.768;2022-12-20T06:56:30;95174.28;;;6.27;76.33
10832;BME280;5469;48.574;8.768;2022-12-20T06:59:04;95178.16;;;6.36;76.23
10832;BME280;5469;48.574;8.768;2022-12-20T07:01:37;95190.28;;;6.37;76.05
10832;BME280;5469;48.574;8.768;2022-12-20T07:04:10;95184.34;;;6.30;76.55
10832;BME280;5469;48.574;8.768;2022-12-20T07:06:44;95184.34;;;6.30;76.61
10832;BME280;5469;48.574;8.768;2022-12-20T07:09:18;95179.75;;;6.37;76.20
10832;BME280;5469;48.574;8.768;2022-12-20T07:11:52;95174.56;;;6.42;76.72
10832;BME280;5469;48.574;8.768;2022-12-20T07:14:25;95179.25;;;6.40;76.22
10832;BME280;5469;48.574;8.768;2022-12-20T07:16:58;95181.72;;;6.30;77.02
10832;BME280;5469;48.574;8.768;2022-12-20T07:19:32;95177.38;;;6.36;76.51
10832;BME280;5469;48.574;8.768;2022-12-20T07:22:05;95188.69;;;6.36;76.50
10832;BME280;5469;48.574;8.768;2022-12-20T07:24:40;95185.91;;;6.43;76.69
10832;BME280;5469;48.574;8.768;2022-12-20T07:27:13;95179.84;;;6.42;76.51
10832;BME280;5469;48.574;8.768;2022-12-20T07:29:47;95184.41;;;6.47;76.31
10832;BME280;5469;48.574;8.768;2022-12-20T07:32:20;95186.78;;;6.48;76.49
10832;BME280;5469;48.574;8.768;2022-12-20T07:34:54;95178.78;;;6.43;76.43
10832;BME280;5469;48.574;8.768;2022-12-20T07:37:27;95181.31;;;6.38;76.45
10832;BME280;5469;48.574;8.768;2022-12-20T07:40:03;95171.78;;;6.49;76.38
10832;BME280;5469;48.574;8.768;2022-12-20T07:42:36;95174.66;;;6.47;76.15
10832;BME280;5469;48.574;8.768;2022-12-20T07:45:10;95167.31;;;6.49;76.14
10832;BME280;5469;48.574;8.768;2022-12-20T07:47:43;95162.84;;;6.50;76.09
10832;BME280;5469;48.574;8.768;2022-12-20T07:50:16;95165.72;;;6.48;75.95
10832;BME280;5469;48.574;8.768;2022-12-20T07:52:50;95170.97;;;6.48;75.95
10832;BME280;5469;48.574;8.768;2022-12-20T07:55:25;95171.78;;;6.49;76.38
10832;BME280;5469;48.574;8.768;2022-12-20T07:58:04;95177.38;;;6.52;76.03
10832;BME280;5469;48.574;8.768;2022-12-20T08:00:38;95169.69;;;6.51;75.94
10832;BME280;5469;48.574;8.768;2022-12-20T08:03:15;95176.25;;;6.48;76.05
10832;BME280;5469;48.574;8.768;2022-12-20T08:05:52;95178.44;;;6.51;76.20
10832;BME280;5469;48.574;8.768;2022-12-20T08:08:28;95172.81;;;6.48;76.41
10832;BME280;5469;48.574;8.768;2022-12-20T08:11:06;95167.31;;;6.49;76.21
10832;BME280;5469;48.574;8.768;2022-12-20T08:13:41;95163.66;;;6.50;75.92
10832;BME280;5469;48.574;8.768;2022-12-20T08:16:14;95161.09;;;6.55;76.04
10832;BME280;5469;48.574;8.768;2022-12-20T08:18:48;95162.78;;;6.62;76.18
10832;BME280;5469;48.574;8.768;2022-12-20T08:21:21;95167.00;;;6.63;75.63
10832;BME280;5469;48.574;8.768;2022-12-20T08:23:55;95158.16;;;6.69;75.66
10832;BME280;5469;48.574;8.768;2022-12-20T08:26:29;95159.84;;;6.75;75.12
10832;BME280;5469;48.574;8.768;2022-12-20T08:29:03;95142.91;;;6.71;75.10
10832;BME280;5469;48.574;8.768;2022-12-20T08:31:37;95146.41;;;6.76;74.85
10832;BME280;5469;48.574;8.768;2022-12-20T08:34:10;95152.72;;;6.75;74.50
10832;BME280;5469;48.574;8.768;2022-12-20T08:36:44;95142.59;;;6.84;74.15
10832;BME280;5469;48.574;8.768;2022-12-20T08:39:17;95148.34;;;6.81;74.60
10832;BME280;5469;48.574;8.768;2022-12-20T08:41:52;95138.28;;;6.78;74.58
10832;BME280;5469;48.574;8.768;2022-12-20T08:44:25;95139.72;;;6.86;74.41
10832;BME280;5469;48.574;8.768;2022-12-20T08:46:58;95139.00;;;6.90;74.77
10832;BME280;5469;48.574;8.768;2022-12-20T08:49:32;95146.41;;;6.93;73.79
10832;BME280;5469;48.574;8.768;2022-12-20T08:52:05;95150.56;;;6.89;73.89
10832;BME280;5469;48.574;8.768;2022-12-20T08:54:39;95144.66;;;6.99;73.86
10832;BME280;5469;48.574;8.768;2022-12-20T08:57:14;95137.47;;;7.11;73.23
10832;BME280;5469;48.574;8.768;2022-12-20T08:59:47;95134.25;;;7.09;73.05
10832;BME280;5469;48.574;8.768;2022-12-20T09:02:20;95137.47;;;7.11;72.62
10832;BME280;5469;48.574;8.768;2022-12-20T09:04:54;95133.91;;;7.22;72.12
10832;BME280;5469;48.574;8.768;2022-12-20T09:07:27;95144.75;;;7.26;72.37
10832;BME280;5469;48.574;8.768;2022-12-20T09:10:01;95149.56;;;7.29;71.90
10832;BME280;5469;48.574;8.768;2022-12-20T09:12:36;95146.56;;;7.42;71.70
10832;BME280;5469;48.574;8.768;2022-12-20T09:15:11;95148.09;;;7.38;71.39
10832;BME280;5469;48.574;8.768;2022-12-20T09:17:44;95148.28;;;7.54;71.16
10832;BME280;5469;48.574;8.768;2022-12-20T09:20:18;95148.72;;;7.46;71.38
10832;BME280;5469;48.574;8.768;2022-12-20T09:22:51;95147.72;;;7.52;70.66
10832;BME280;5469;48.574;8.768;2022-12-20T09:25:25;95151.97;;;7.53;70.80
10832;BME280;5469;48.574;8.768;2022-12-20T09:27:59;95147.69;;;7.69;70.82
10832;BME280;5469;48.574;8.768;2022-12-20T09:30:33;95143.81;;;7.76;70.62
10832;BME280;5469;48.574;8.768;2022-12-20T09:33:06;95142.16;;;7.70;70.97
10832;BME280;5469;48.574;8.768;2022-12-20T09:35:43;95131.19;;;7.78;70.55
10832;BME280;5469;48.574;8.768;2022-12-20T09:38:17;95113.25;;;7.80;70.93
10832;BME280;5469;48.574;8.768;2022-12-20T09:40:52;95117.94;;;7.73;70.48
10832;BME280;5469;48.574;8.768;2022-12-20T09:43:27;95131.13;;;7.73;70.15
10832;BME280;5469;48.574;8.768;2022-12-20T09:46:02;95117.72;;;7.80;70.12
10832;BME280;5469;48.574;8.768;2022-12-20T09:48:37;95126.88;;;7.72;70.24
10832;BME280;5469;48.574;8.768;2022-12-20T09:51:21;95127.06;;;7.65;70.04
10832;BME280;5469;48.574;8.768;2022-12-20T09:54:06;95146.06;;;7.68;70.09
10832;BME280;5469;48.574;8.768;2022-12-20T09:56:52;95120.50;;;7.68;70.27
10832;BME280;5469;48.574;8.768;2022-12-20T09:59:32;95115.06;;;7.53;70.67
10832;BME280;5469;48.574;8.768;2022-12-20T10:02:08;95115.53;;;7.50;70.83
10832;BME280;5469;48.574;8.768;2022-12-20T10:04:43;95116.84;;;7.47;71.02
10832;BME280;5469;48.574;8.768;2022-12-20T10:07:26;95110.50;;;7.48;71.09
10832;BME280;5469;48.574;8.768;2022-12-20T10:10:20;95117.50;;;7.37;71.17
10832;BME280;5469;48.574;8.768;2022-12-20T10:13:05;95097.91;;;7.33;70.67
10832;BME280;5469;48.574;8.768;2022-12-20T10:15:49;95100.81;;;7.32;71.53
10832;BME280;5469;48.574;8.768;2022-12-20T10:18:37;95095.13;;;7.40;71.76
10832;BME280;5469;48.574;8.768;2022-12-20T10:21:20;95095.34;;;7.38;71.53
10832;BME280;5469;48.574;8.768;2022-12-20T10:24:00;95089.13;;;7.44;70.98
10832;BME280;5469;48.574;8.768;2022-12-20T10:26:34;95098.25;;;7.37;71.38
10832;BME280;5469;48.574;8.768;2022-12-20T10:29:07;95098.16;;;7.54;71.33
10832;BME280;5469;48.574;8.768;2022-12-20T10:31:42;95090.69;;;7.46;71.51
10832;BME280;5469;48.574;8.768;2022-12-20T10:34:16;95086.22;;;7.46;71.29
10832;BME280;5469;48.574;8.768;2022-12-20T10:37:10;95087.50;;;7.43;71.49
10832;BME280;5469;48.574;8.768;2022-12-20T10:39:47;95081.16;;;7.39;71.43
10832;BME280;5469;48.574;8.768;2022-12-20T10:42:24;95087.13;;;7.57;71.51
10832;BME280;5469;48.574;8.768;2022-12-20T10:44:58;95079.47;;;7.55;70.97
10832;BME280;5469;48.574;8.768;2022-12-20T10:47:41;95077.00;;;7.49;71.41
10832;BME280;5469;48.574;8.768;2022-12-20T10:50:16;95082.22;;;7.43;71.15
10832;BME280;5469;48.574;8.768;2022-12-20T10:53:04;95071.38;;;7.40;71.39
10832;BME280;5469;48.574;8.768;2022-12-20T10:55:45;95055.97;;;7.54;72.00
10832;BME280;5469;48.574;8.768;2022-12-20T10:58:30;95046.53;;;7.58;70.72
10832;BME280;5469;48.574;8.768;2022-12-20T11:01:12;95050.75;;;7.59;70.64
10832;BME280;5469;48.574;8.768;2022-12-20T11:03:53;95046.03;;;7.61;70.83
10832;BME280;5469;48.574;8.768;2022-12-20T11:06:40;95056.66;;;7.66;70.57
10832;BME280;5469;48.574;8.768;2022-12-20T11:09:23;95040.38;;;7.74;70.33
10832;BME280;5469;48.574;8.768;2022-12-20T11:12:06;95028.59;;;7.60;70.22
10832;BME280;5469;48.574;8.768;2022-12-20T11:14:40;95034.91;;;7.81;69.96
10832;BME280;5469;48.574;8.768;2022-12-20T11:17:23;95030.91;;;7.78;69.39
10832;BME280;5469;48.574;8.768;2022-12-20T11:20:21;95018.84;;;7.87;69.35
10832;BME280;5469;48.574;8.768;2022-12-20T11:23:07;95007.22;;;7.83;69.54
10832;BME280;5469;48.574;8.768;2022-12-20T11:25:52;95025.25;;;7.92;69.36
10832;BME280;5469;48.574;8.768;2022-12-20T11:28:41;95005.09;;;8.13;69.21
10832;BME280;5469;48.574;8.768;2022-12-20T11:31:22;95000.56;;;8.08;68.82
10832;BME280;5469;48.574;8.768;2022-12-20T11:34:03;95009.06;;;8.15;68.88
10832;BME280;5469;48.574;8.768;2022-12-20T11:37:03;95001.16;;;8.15;68.58
10832;BME280;5469;48.574;8.768;2022-12-20T11:39:49;94996.91;;;8.14;68.64
10832;BME280;5469;48.574;8.768;2022-12-20T11:42:32;94987.91;;;8.10;69.36
10832;BME280;5469;48.574;8.768;2022-12-20T11:45:14;94970.41;;;8.04;68.92
10832;BME280;5469;48.574;8.768;2022-12-20T11:48:19;94976.81;;;8.08;69.04
10832;BME280;5469;48.574;8.768;2022-12-20T11:51:01;94968.22;;;8.23;68.87
10832;BME280;5469;48.574;8.768;2022-12-20T11:53:41;94965.00;;;8.21;69.00
10832;BME280;5469;48.574;8.768;2022-12-20T11:56:20;94957.81;;;8.11;69.06
10832;BME280;5469;48.574;8.768;2022-12-20T11:58:59;94960.31;;;8.28;68.67
10832;BME280;5469;48.574;8.768;2022-12-20T12:01:38;94958.59;;;8.44;68.84
10832;BME280;5469;48.574;8.768;2022-12-20T12:04:16;94959.78;;;8.68;68.64
10832;BME280;5469;48.574;8.768;2022-12-20T12:06:57;94955.09;;;8.81;68.38
10832;BME280;5469;48.574;8.768;2022-12-20T12:09:37;94949.22;;;8.68;68.29
10832;BME280;5469;48.574;8.768;2022-12-20T12:12:23;94949.22;;;8.68;68.13
10832;BME280;5469;48.574;8.768;2022-12-20T12:15:02;94953.97;;;8.71;68.36
10832;BME280;5469;48.574;8.768;2022-12-20T12:17:41;94953.91;;;8.51;68.81
10832;BME280;5469;48.574;8.768;2022-12-20T12:20:23;94961.69;;;8.36;68.92
10832;BME280;5469;48.574;8.768;2022-12-20T12:23:02;94956.41;;;8.36;69.12
10832;BME280;5469;48.574;8.768;2022-12-20T12:25:39;94947.66;;;8.35;68.35
10832;BME280;5469;48.574;8.768;2022-12-20T12:28:13;94950.38;;;8.40;68.87
10832;BME280;5469;48.574;8.768;2022-12-20T12:30:51;94944.53;;;8.38;68.97
10832;BME280;5469;48.574;8.768;2022-12-20T12:33:29;94923.84;;;8.25;68.33
10832;BME280;5469;48.574;8.768;2022-12-20T12:36:33;94911.97;;;8.27;68.24
10832;BME280;5469;48.574;8.768;2022-12-20T12:42:31;94920.94;;;8.26;68.51
10832;BME280;5469;48.574;8.768;2022-12-20T12:45:15;94916.22;;;8.28;68.54
10832;BME280;5469;48.574;8.768;2022-12-20T12:47:54;94897.91;;;8.54;67.30
10832;BME280;5469;48.574;8.768;2022-12-20T12:50:31;94912.16;;;8.58;67.32
10832;BME280;5469;48.574;8.768;2022-12-20T12:53:12;94905.06;;;8.64;67.20
10832;BME280;5469;48.574;8.768;2022-12-20T12:55:49;94908.00;;;8.67;67.34
10832;BME280;5469;48.574;8.768;2022-12-20T12:58:33;94917.53;;;8.79;67.48
10832;BME280;5469;48.574;8.768;2022-12-20T13:01:09;94905.91;;;8.74;67.58
10832;BME280;5469;48.574;8.768;2022-12-20T13:03:47;94906.84;;;8.53;68.33
10832;BME280;5469;48.574;8.768;2022-12-20T13:09:40;94911.66;;;8.66;68.02
10832;BME280;5469;48.574;8.768;2022-12-20T13:12:55;94910.91;;;8.71;67.56
10832;BME280;5469;48.574;8.768;2022-12-20T13:16:10;94906.41;;;8.71;67.90
10832;BME280;5469;48.574;8.768;2022-12-20T13:19:08;94914.94;;;8.84;67.03
10832;BME280;5469;48.574;8.768;2022-12-20T13:21:44;94910.25;;;9.01;66.49
10832;BME280;5469;48.574;8.768;2022-12-20T13:24:38;94913.97;;;9.15;66.17
10832;BME280;5469;48.574;8.768;2022-12-20T13:27:27;94902.91;;;9.34;65.81
10832;BME280;5469;48.574;8.768;2022-12-20T13:33:21;94894.19;;;9.38;65.35
10832;BME280;5469;48.574;8.768;2022-12-20T13:36:01;94885.47;;;9.43;65.46
10832;BME280;5469;48.574;8.768;2022-12-20T13:39:00;94875.41;;;9.30;67.30
10832;BME280;5469;48.574;8.768;2022-12-20T13:41:37;94878.81;;;9.15;68.08
10832;BME280;5469;48.574;8.768;2022-12-20T13:44:42;94877.47;;;9.17;66.30
10832;BME280;5469;48.574;8.768;2022-12-20T13:47:30;94865.88;;;9.24;67.95
10832;BME280;5469;48.574;8.768;2022-12-20T13:50:35;94883.34;;;9.45;67.04
10832;BME280;5469;48.574;8.768;2022-12-20T13:53:15;94860.59;;;9.54;67.83
10832;BME280;5469;48.574;8.768;2022-12-20T13:55:49;94865.88;;;9.44;68.28
10832;BME280;5469;48.574;8.768;2022-12-20T13:58:25;94869.53;;;9.12;69.13
10832;BME280;5469;48.574;8.768;2022-12-20T14:01:04;94845.75;;;9.17;66.69
10832;BME280;5469;48.574;8.768;2022-12-20T14:03:40;94852.63;;;9.08;67.32
10832;BME280;5469;48.574;8.768;2022-12-20T14:06:18;94857.91;;;9.03;67.07
10832;BME280;5469;48.574;8.768;2022-12-20T14:08:52;94857.63;;;9.10;66.99
10832;BME280;5469;48.574;8.768;2022-12-20T14:11:26;94854.75;;;9.22;66.90
10832;BME280;5469;48.574;8.768;2022-12-20T14:14:01;94848.16;;;9.19;66.57
10832;BME280;5469;48.574;8.768;2022-12-20T14:16:35;94853.72;;;9.33;66.10
10832;BME280;5469;48.574;8.768;2022-12-20T14:19:13;94854.78;;;9.27;65.96
10832;BME280;5469;48.574;8.768;2022-12-20T14:21:48;94852.66;;;9.18;66.53
10832;BME280;5469;48.574;8.768;2022-12-20T14:24:23;94855.25;;;9.03;67.18
10832;BME280;5469;48.574;8.768;2022-12-20T14:26:56;94861.59;;;9.07;66.33
10832;BME280;5469;48.574;8.768;2022-12-20T14:29:30;94853.63;;;8.92;66.68